sensor_id;sensor_type;location;lat;lon;timestamp;temperature;humidity
39925;DHT22;25592;49.986;11.618;2024-02-23T00:00:55;10.30;99.90
39925;DHT22;25592;49.986;11.618;2024-02-23T00:03:41;10.30;99.90
39925;DHT22;25592;49.986;11.618;2024-02-23T00:06:26;10.20;99.90
39925;DHT22;25592;49.986;11.618;2024-02-23T00:09:13;10.10;99.90
39925;DHT22;25592;49.986;11.618;2024-02-23T00:11:58;10.10;99.90
39925;DHT22;25592;49.986;11.618;2024-02-23T00:14:44;10.10;99.90
39925;DHT22;25592;49.986;11.618;2024-02-23T00:17:29;10.00;99.90
39925;DHT22;25592;49.986;11.618;2024-02-23T00:20:15;10.00;99.90
39925;DHT22;25592;49.986;11.618;2024-02-23T00:23:02;10.00;99.90
39925;DHT22;25592;49.986;11.618;2024-02-23T00:25:47;9.90;99.90
39925;DHT22;25592;49.986;11.618;2024-02-23T00:28:36;9.80;99.90
39925;DHT22;25592;49.986;11.618;2024-02-23T00:31:21;9.80;99.90
39925;DHT22;25592;49.986;11.618;2024-02-23T00:34:07;9.80;99.90
39925;DHT22;25592;49.986;11.618;2024-02-23T00:36:56;9.70;99.90
39925;DHT22;25592;49.986;11.618;2024-02-23T00:39:41;9.70;99.90
39925;DHT22;25592;49.986;11.618;2024-02-23T00:42:26;9.70;99.90
39925;DHT22;25592;49.986;11.618;2024-02-23T00:45:12;9.70;99.90
39925;DHT22;25592;49.986;11.618;2024-02-23T00:47:57;9.80;99.90
39925;DHT22;25592;49.986;11.618;2024-02-23T00:50:43;9.70;99.90
39925;DHT22;25592;49.986;11.618;2024-02-23T00:53:31;9.60;99.90
39925;DHT22;25592;49.986;11.618;2024-02-23T00:56:16;9.60;99.90
39925;DHT22;25592;49.986;11.618;2024-02-23T00:59:02;9.60;99.90
39925;DHT22;25592;49.986;11.618;2024-02-23T01:01:47;9.60;99.90
39925;DHT22;25592;49.986;11.618;2024-02-23T01:04:33;9.60;99.90
39925;DHT22;25592;49.986;11.618;2024-02-23T01:07:18;9.60;99.90
39925;DHT22;25592;49.986;11.618;2024-02-23T01:10:04;9.60;99.90
39925;DHT22;25592;49.986;11.618;2024-02-23T01:12:50;9.50;99.90
39925;DHT22;25592;49.986;11.618;2024-02-23T01:15:35;9.50;99.90
39925;DHT22;25592;49.986;11.618;2024-02-23T01:18:21;9.40;99.90
39925;DHT22;25592;49.986;11.618;2024-02-23T01:21:07;9.50;99.90
39925;DHT22;25592;49.986;11.618;2024-02-23T01:23:52;9.50;99.90
39925;DHT22;25592;49.986;11.618;2024-02-23T01:26:38;9.40;99.90
39925;DHT22;25592;49.986;11.618;2024-02-23T01:29:27;9.30;99.90
39925;DHT22;25592;49.986;11.618;2024-02-23T01:32:12;9.40;99.90
39925;DHT22;25592;49.986;11.618;2024-02-23T01:34:58;9.40;99.90
39925;DHT22;25592;49.986;11.618;2024-02-23T01:37:44;9.40;99.90
39925;DHT22;25592;49.986;11.618;2024-02-23T01:40:30;9.50;99.90
39925;DHT22;25592;49.986;11.618;2024-02-23T01:43:15;9.50;99.90
39925;DHT22;25592;49.986;11.618;2024-02-23T01:46:01;9.50;99.90
39925;DHT22;25592;49.986;11.618;2024-02-23T01:48:46;9.30;99.90
39925;DHT22;25592;49.986;11.618;2024-02-23T01:51:32;9.40;99.90
39925;DHT22;25592;49.986;11.618;2024-02-23T01:54:18;9.40;99.90
39925;DHT22;25592;49.986;11.618;2024-02-23T01:57:04;9.40;99.90
39925;DHT22;25592;49.986;11.618;2024-02-23T02:00:11;9.30;99.90
39925;DHT22;25592;49.986;11.618;2024-02-23T02:02:58;9.20;99.90
39925;DHT22;25592;49.986;11.618;2024-02-23T02:05:44;9.20;99.90
39925;DHT22;25592;49.986;11.618;2024-02-23T02:08:30;9.10;99.90
39925;DHT22;25592;49.986;11.618;2024-02-23T02:11:16;9.00;99.90
39925;DHT22;25592;49.986;11.618;2024-02-23T02:14:01;8.90;99.90
39925;DHT22;25592;49.986;11.618;2024-02-23T02:16:47;8.70;99.90
39925;DHT22;25592;49.986;11.618;2024-02-23T02:19:32;8.70;99.90
39925;DHT22;25592;49.986;11.618;2024-02-23T02:22:18;8.50;99.90
39925;DHT22;25592;49.986;11.618;2024-02-23T02:25:03;8.60;99.90
39925;DHT22;25592;49.986;11.618;2024-02-23T02:27:49;8.70;99.90
39925;DHT22;25592;49.986;11.618;2024-02-23T02:30:34;8.60;99.90
39925;DHT22;25592;49.986;11.618;2024-02-23T02:33:21;8.50;99.90
39925;DHT22;25592;49.986;11.618;2024-02-23T02:36:06;8.60;99.90
39925;DHT22;25592;49.986;11.618;2024-02-23T02:38:52;8.50;99.90
39925;DHT22;25592;49.986;11.618;2024-02-23T02:41:37;8.60;99.90
39925;DHT22;25592;49.986;11.618;2024-02-23T02:44:22;8.60;99.90
39925;DHT22;25592;49.986;11.618;2024-02-23T02:47:08;8.60;99.90
39925;DHT22;25592;49.986;11.618;2024-02-23T02:49:53;8.70;99.90
39925;DHT22;25592;49.986;11.618;2024-02-23T02:52:39;8.80;99.90
39925;DHT22;25592;49.986;11.618;2024-02-23T02:55:24;8.80;99.90
39925;DHT22;25592;49.986;11.618;2024-02-23T02:58:13;8.70;99.90
39925;DHT22;25592;49.986;11.618;2024-02-23T03:00:59;8.60;99.90
39925;DHT22;25592;49.986;11.618;2024-02-23T03:03:44;8.50;99.90
39925;DHT22;25592;49.986;11.618;2024-02-23T03:06:30;8.60;99.90
39925;DHT22;25592;49.986;11.618;2024-02-23T03:09:15;8.50;99.90
39925;DHT22;25592;49.986;11.618;2024-02-23T03:12:01;8.50;99.90
39925;DHT22;25592;49.986;11.618;2024-02-23T03:14:47;8.40;99.90
39925;DHT22;25592;49.986;11.618;2024-02-23T03:17:32;8.40;99.90
39925;DHT22;25592;49.986;11.618;2024-02-23T03:20:18;8.40;99.90
39925;DHT22;25592;49.986;11.618;2024-02-23T03:23:04;8.50;99.90
39925;DHT22;25592;49.986;11.618;2024-02-23T03:25:49;8.60;99.90
39925;DHT22;25592;49.986;11.618;2024-02-23T03:28:35;8.40;99.90
39925;DHT22;25592;49.986;11.618;2024-02-23T03:31:20;8.50;99.90
39925;DHT22;25592;49.986;11.618;2024-02-23T03:34:06;8.60;99.90
39925;DHT22;25592;49.986;11.618;2024-02-23T03:36:51;8.50;99.90
39925;DHT22;25592;49.986;11.618;2024-02-23T03:39:37;8.60;99.90
39925;DHT22;25592;49.986;11.618;2024-02-23T03:42:22;8.60;99.90
39925;DHT22;25592;49.986;11.618;2024-02-23T03:45:08;8.40;99.90
39925;DHT22;25592;49.986;11.618;2024-02-23T03:47:53;8.30;99.90
39925;DHT22;25592;49.986;11.618;2024-02-23T03:50:39;8.30;99.90
39925;DHT22;25592;49.986;11.618;2024-02-23T03:53:24;8.20;99.90
39925;DHT22;25592;49.986;11.618;2024-02-23T03:56:10;8.00;99.90
39925;DHT22;25592;49.986;11.618;2024-02-23T03:58:55;7.90;99.90
39925;DHT22;25592;49.986;11.618;2024-02-23T04:01:40;7.90;99.90
39925;DHT22;25592;49.986;11.618;2024-02-23T04:04:26;7.90;99.90
39925;DHT22;25592;49.986;11.618;2024-02-23T04:07:11;7.90;99.90
39925;DHT22;25592;49.986;11.618;2024-02-23T04:09:57;7.80;99.90
39925;DHT22;25592;49.986;11.618;2024-02-23T04:12:42;7.80;99.90
39925;DHT22;25592;49.986;11.618;2024-02-23T04:15:28;7.80;99.90
39925;DHT22;25592;49.986;11.618;2024-02-23T04:18:15;7.80;99.90
39925;DHT22;25592;49.986;11.618;2024-02-23T04:21:00;7.80;99.90
39925;DHT22;25592;49.986;11.618;2024-02-23T04:23:46;7.80;99.90
39925;DHT22;25592;49.986;11.618;2024-02-23T04:26:31;7.80;99.90
39925;DHT22;25592;49.986;11.618;2024-02-23T04:29:17;7.90;99.90
39925;DHT22;25592;49.986;11.618;2024-02-23T04:32:03;8.10;99.90
39925;DHT22;25592;49.986;11.618;2024-02-23T04:34:49;8.10;99.90
39925;DHT22;25592;49.986;11.618;2024-02-23T04:37:35;7.90;99.90
39925;DHT22;25592;49.986;11.618;2024-02-23T04:40:21;8.10;99.90
39925;DHT22;25592;49.986;11.618;2024-02-23T04:43:07;8.20;99.90
39925;DHT22;25592;49.986;11.618;2024-02-23T04:45:52;8.20;99.90
39925;DHT22;25592;49.986;11.618;2024-02-23T04:48:38;8.30;99.90
39925;DHT22;25592;49.986;11.618;2024-02-23T04:51:23;8.40;99.90
39925;DHT22;25592;49.986;11.618;2024-02-23T04:54:09;8.20;99.90
39925;DHT22;25592;49.986;11.618;2024-02-23T04:56:54;8.20;99.90
39925;DHT22;25592;49.986;11.618;2024-02-23T04:59:40;8.00;99.90
39925;DHT22;25592;49.986;11.618;2024-02-23T05:02:25;8.00;99.90
39925;DHT22;25592;49.986;11.618;2024-02-23T05:05:14;8.00;99.90
39925;DHT22;25592;49.986;11.618;2024-02-23T05:08:00;7.80;99.90
39925;DHT22;25592;49.986;11.618;2024-02-23T05:10:46;7.80;99.90
39925;DHT22;25592;49.986;11.618;2024-02-23T05:13:31;7.80;99.90
39925;DHT22;25592;49.986;11.618;2024-02-23T05:16:17;7.50;99.90
39925;DHT22;25592;49.986;11.618;2024-02-23T05:19:02;7.30;99.90
39925;DHT22;25592;49.986;11.618;2024-02-23T05:21:48;7.40;99.90
39925;DHT22;25592;49.986;11.618;2024-02-23T05:24:33;7.50;99.90
39925;DHT22;25592;49.986;11.618;2024-02-23T05:27:19;7.50;99.90
39925;DHT22;25592;49.986;11.618;2024-02-23T05:30:05;7.50;99.90
39925;DHT22;25592;49.986;11.618;2024-02-23T05:32:52;7.50;99.90
39925;DHT22;25592;49.986;11.618;2024-02-23T05:35:37;7.50;99.90
39925;DHT22;25592;49.986;11.618;2024-02-23T05:38:23;7.50;99.90
39925;DHT22;25592;49.986;11.618;2024-02-23T05:41:12;7.50;99.90
39925;DHT22;25592;49.986;11.618;2024-02-23T05:43:57;7.40;99.90
39925;DHT22;25592;49.986;11.618;2024-02-23T05:46:43;7.50;99.90
39925;DHT22;25592;49.986;11.618;2024-02-23T05:49:28;7.50;99.90
39925;DHT22;25592;49.986;11.618;2024-02-23T05:52:14;7.50;99.90
39925;DHT22;25592;49.986;11.618;2024-02-23T05:55:00;7.60;99.90
39925;DHT22;25592;49.986;11.618;2024-02-23T05:57:45;7.50;99.90
39925;DHT22;25592;49.986;11.618;2024-02-23T06:00:32;7.50;99.90
39925;DHT22;25592;49.986;11.618;2024-02-23T06:03:18;7.60;99.90
39925;DHT22;25592;49.986;11.618;2024-02-23T06:06:07;7.50;99.90
39925;DHT22;25592;49.986;11.618;2024-02-23T06:08:53;7.30;99.90
39925;DHT22;25592;49.986;11.618;2024-02-23T06:11:39;7.10;99.90
39925;DHT22;25592;49.986;11.618;2024-02-23T06:14:24;7.10;99.90
39925;DHT22;25592;49.986;11.618;2024-02-23T06:17:10;7.10;99.90
39925;DHT22;25592;49.986;11.618;2024-02-23T06:19:55;7.00;99.90
39925;DHT22;25592;49.986;11.618;2024-02-23T06:22:44;7.00;99.90
39925;DHT22;25592;49.986;11.618;2024-02-23T06:25:29;7.00;99.90
39925;DHT22;25592;49.986;11.618;2024-02-23T06:28:15;6.80;99.90
39925;DHT22;25592;49.986;11.618;2024-02-23T06:31:00;6.80;99.90
39925;DHT22;25592;49.986;11.618;2024-02-23T06:33:45;6.90;99.90
39925;DHT22;25592;49.986;11.618;2024-02-23T06:36:34;6.80;99.90
39925;DHT22;25592;49.986;11.618;2024-02-23T06:39:19;6.80;99.90
39925;DHT22;25592;49.986;11.618;2024-02-23T06:42:05;6.80;99.90
39925;DHT22;25592;49.986;11.618;2024-02-23T06:44:50;6.70;99.90
39925;DHT22;25592;49.986;11.618;2024-02-23T06:47:36;6.80;99.90
39925;DHT22;25592;49.986;11.618;2024-02-23T06:50:21;6.90;99.90
39925;DHT22;25592;49.986;11.618;2024-02-23T06:53:07;6.90;99.90
39925;DHT22;25592;49.986;11.618;2024-02-23T06:55:52;6.80;99.90
39925;DHT22;25592;49.986;11.618;2024-02-23T06:58:38;6.80;99.90
39925;DHT22;25592;49.986;11.618;2024-02-23T07:01:24;6.90;99.90
39925;DHT22;25592;49.986;11.618;2024-02-23T07:04:09;6.90;99.90
39925;DHT22;25592;49.986;11.618;2024-02-23T07:06:55;6.90;99.90
39925;DHT22;25592;49.986;11.618;2024-02-23T07:09:40;7.10;99.90
39925;DHT22;25592;49.986;11.618;2024-02-23T07:12:26;7.30;99.90
39925;DHT22;25592;49.986;11.618;2024-02-23T07:15:14;7.20;99.90
39925;DHT22;25592;49.986;11.618;2024-02-23T07:17:59;7.10;99.90
39925;DHT22;25592;49.986;11.618;2024-02-23T07:20:45;7.00;99.90
39925;DHT22;25592;49.986;11.618;2024-02-23T07:23:30;7.10;99.90
39925;DHT22;25592;49.986;11.618;2024-02-23T07:26:16;7.20;99.90
39925;DHT22;25592;49.986;11.618;2024-02-23T07:29:01;7.30;99.90
39925;DHT22;25592;49.986;11.618;2024-02-23T07:31:47;7.30;99.90
39925;DHT22;25592;49.986;11.618;2024-02-23T07:34:32;7.30;99.90
39925;DHT22;25592;49.986;11.618;2024-02-23T07:37:18;7.20;99.90
39925;DHT22;25592;49.986;11.618;2024-02-23T07:40:04;7.50;99.90
39925;DHT22;25592;49.986;11.618;2024-02-23T07:42:49;7.80;99.90
39925;DHT22;25592;49.986;11.618;2024-02-23T07:45:35;7.80;99.90
39925;DHT22;25592;49.986;11.618;2024-02-23T07:48:20;8.00;99.90
39925;DHT22;25592;49.986;11.618;2024-02-23T07:51:06;8.00;99.90
39925;DHT22;25592;49.986;11.618;2024-02-23T07:53:52;8.10;99.90
39925;DHT22;25592;49.986;11.618;2024-02-23T07:56:37;8.20;99.90
39925;DHT22;25592;49.986;11.618;2024-02-23T07:59:23;8.00;99.90
39925;DHT22;25592;49.986;11.618;2024-02-23T08:02:08;8.10;99.90
39925;DHT22;25592;49.986;11.618;2024-02-23T08:04:54;8.10;99.90
39925;DHT22;25592;49.986;11.618;2024-02-23T08:07:40;8.20;99.90
39925;DHT22;25592;49.986;11.618;2024-02-23T08:10:26;8.20;99.90
39925;DHT22;25592;49.986;11.618;2024-02-23T08:13:11;8.20;99.90
39925;DHT22;25592;49.986;11.618;2024-02-23T08:16:00;8.20;99.90
39925;DHT22;25592;49.986;11.618;2024-02-23T08:18:45;8.30;99.90
39925;DHT22;25592;49.986;11.618;2024-02-23T08:21:31;8.20;99.90
39925;DHT22;25592;49.986;11.618;2024-02-23T08:24:16;8.00;99.90
39925;DHT22;25592;49.986;11.618;2024-02-23T08:27:02;8.00;99.90
39925;DHT22;25592;49.986;11.618;2024-02-23T08:29:48;8.00;99.90
39925;DHT22;25592;49.986;11.618;2024-02-23T08:32:33;8.00;99.90
39925;DHT22;25592;49.986;11.618;2024-02-23T08:35:19;7.80;99.90
39925;DHT22;25592;49.986;11.618;2024-02-23T08:38:04;7.70;99.90
39925;DHT22;25592;49.986;11.618;2024-02-23T08:40:50;7.80;99.90
39925;DHT22;25592;49.986;11.618;2024-02-23T08:43:35;7.90;99.90
39925;DHT22;25592;49.986;11.618;2024-02-23T08:46:21;8.00;99.90
39925;DHT22;25592;49.986;11.618;2024-02-23T08:49:06;7.90;99.90
39925;DHT22;25592;49.986;11.618;2024-02-23T08:51:52;7.70;99.90
39925;DHT22;25592;49.986;11.618;2024-02-23T08:54:37;7.80;99.90
39925;DHT22;25592;49.986;11.618;2024-02-23T08:57:24;7.90;99.90
39925;DHT22;25592;49.986;11.618;2024-02-23T09:00:11;8.00;99.90
39925;DHT22;25592;49.986;11.618;2024-02-23T09:03:02;8.10;99.90
39925;DHT22;25592;49.986;11.618;2024-02-23T09:05:47;8.10;99.90
39925;DHT22;25592;49.986;11.618;2024-02-23T09:08:33;8.10;99.90
39925;DHT22;25592;49.986;11.618;2024-02-23T09:11:19;8.20;99.90
39925;DHT22;25592;49.986;11.618;2024-02-23T09:14:05;8.20;99.90
39925;DHT22;25592;49.986;11.618;2024-02-23T09:16:50;8.30;99.90
39925;DHT22;25592;49.986;11.618;2024-02-23T09:19:36;8.20;99.90
39925;DHT22;25592;49.986;11.618;2024-02-23T09:22:22;8.10;99.90
39925;DHT22;25592;49.986;11.618;2024-02-23T09:25:07;8.00;99.90
39925;DHT22;25592;49.986;11.618;2024-02-23T09:27:57;8.00;99.90
39925;DHT22;25592;49.986;11.618;2024-02-23T09:30:42;7.90;99.90
39925;DHT22;25592;49.986;11.618;2024-02-23T09:33:27;7.80;99.90
39925;DHT22;25592;49.986;11.618;2024-02-23T09:36:13;7.60;99.90
39925;DHT22;25592;49.986;11.618;2024-02-23T09:38:58;7.30;99.90
39925;DHT22;25592;49.986;11.618;2024-02-23T09:41:44;7.30;99.90
39925;DHT22;25592;49.986;11.618;2024-02-23T09:44:32;7.20;99.90
39925;DHT22;25592;49.986;11.618;2024-02-23T09:47:21;7.10;99.90
39925;DHT22;25592;49.986;11.618;2024-02-23T09:50:08;7.30;99.90
39925;DHT22;25592;49.986;11.618;2024-02-23T09:52:56;7.10;99.90
39925;DHT22;25592;49.986;11.618;2024-02-23T09:55:43;7.10;99.90
39925;DHT22;25592;49.986;11.618;2024-02-23T09:58:29;7.10;99.90
39925;DHT22;25592;49.986;11.618;2024-02-23T10:01:22;7.20;99.90
39925;DHT22;25592;49.986;11.618;2024-02-23T10:04:10;7.30;99.90
39925;DHT22;25592;49.986;11.618;2024-02-23T10:06:56;7.30;99.90
39925;DHT22;25592;49.986;11.618;2024-02-23T10:09:42;7.40;99.90
39925;DHT22;25592;49.986;11.618;2024-02-23T10:12:27;7.50;99.90
39925;DHT22;25592;49.986;11.618;2024-02-23T10:15:13;7.60;99.90
39925;DHT22;25592;49.986;11.618;2024-02-23T10:17:58;7.30;99.90
39925;DHT22;25592;49.986;11.618;2024-02-23T10:20:44;7.30;99.90
39925;DHT22;25592;49.986;11.618;2024-02-23T10:23:30;7.50;99.90
39925;DHT22;25592;49.986;11.618;2024-02-23T10:26:18;7.30;99.90
39925;DHT22;25592;49.986;11.618;2024-02-23T10:29:06;7.30;99.90
39925;DHT22;25592;49.986;11.618;2024-02-23T10:31:57;7.30;99.90
39925;DHT22;25592;49.986;11.618;2024-02-23T10:34:43;7.10;99.90
39925;DHT22;25592;49.986;11.618;2024-02-23T10:37:30;7.10;99.90
39925;DHT22;25592;49.986;11.618;2024-02-23T10:40:17;7.20;99.90
39925;DHT22;25592;49.986;11.618;2024-02-23T10:43:03;7.20;99.90
39925;DHT22;25592;49.986;11.618;2024-02-23T10:45:51;7.20;99.90
39925;DHT22;25592;49.986;11.618;2024-02-23T10:48:37;7.20;99.90
39925;DHT22;25592;49.986;11.618;2024-02-23T10:51:23;7.30;99.90
39925;DHT22;25592;49.986;11.618;2024-02-23T10:54:10;7.20;99.90
39925;DHT22;25592;49.986;11.618;2024-02-23T10:56:56;7.10;99.90
39925;DHT22;25592;49.986;11.618;2024-02-23T10:59:41;7.10;99.90
39925;DHT22;25592;49.986;11.618;2024-02-23T11:02:28;7.30;99.90
39925;DHT22;25592;49.986;11.618;2024-02-23T11:05:18;7.50;99.90
39925;DHT22;25592;49.986;11.618;2024-02-23T11:08:06;7.70;99.90
39925;DHT22;25592;49.986;11.618;2024-02-23T11:10:52;7.70;99.90
39925;DHT22;25592;49.986;11.618;2024-02-23T11:13:38;7.70;99.90
39925;DHT22;25592;49.986;11.618;2024-02-23T11:16:25;7.80;99.90
39925;DHT22;25592;49.986;11.618;2024-02-23T11:19:10;7.80;99.90
39925;DHT22;25592;49.986;11.618;2024-02-23T11:21:58;7.80;99.90
39925;DHT22;25592;49.986;11.618;2024-02-23T11:24:44;7.70;99.90
39925;DHT22;25592;49.986;11.618;2024-02-23T11:27:33;7.60;99.90
39925;DHT22;25592;49.986;11.618;2024-02-23T11:30:19;7.60;99.90
39925;DHT22;25592;49.986;11.618;2024-02-23T11:33:08;7.70;99.90
39925;DHT22;25592;49.986;11.618;2024-02-23T11:35:53;7.90;99.90
39925;DHT22;25592;49.986;11.618;2024-02-23T11:38:40;7.70;99.90
39925;DHT22;25592;49.986;11.618;2024-02-23T11:41:27;7.50;99.90
39925;DHT22;25592;49.986;11.618;2024-02-23T11:44:12;7.60;99.90
39925;DHT22;25592;49.986;11.618;2024-02-23T11:46:58;7.70;99.90
39925;DHT22;25592;49.986;11.618;2024-02-23T11:49:44;7.80;99.90
39925;DHT22;25592;49.986;11.618;2024-02-23T11:52:31;7.70;99.90
39925;DHT22;25592;49.986;11.618;2024-02-23T11:55:19;7.80;99.90
39925;DHT22;25592;49.986;11.618;2024-02-23T11:58:09;7.80;99.90
39925;DHT22;25592;49.986;11.618;2024-02-23T12:01:03;7.90;99.90
39925;DHT22;25592;49.986;11.618;2024-02-23T12:03:48;8.10;99.90
39925;DHT22;25592;49.986;11.618;2024-02-23T12:06:34;8.30;99.90
39925;DHT22;25592;49.986;11.618;2024-02-23T12:09:19;8.20;99.90
39925;DHT22;25592;49.986;11.618;2024-02-23T12:12:05;8.20;99.90
39925;DHT22;25592;49.986;11.618;2024-02-23T12:14:51;8.10;99.90
39925;DHT22;25592;49.986;11.618;2024-02-23T12:17:36;8.20;99.90
39925;DHT22;25592;49.986;11.618;2024-02-23T12:20:23;8.20;99.90
39925;DHT22;25592;49.986;11.618;2024-02-23T12:23:08;7.90;99.90
39925;DHT22;25592;49.986;11.618;2024-02-23T12:25:59;7.80;99.90
39925;DHT22;25592;49.986;11.618;2024-02-23T12:28:45;7.80;99.90
39925;DHT22;25592;49.986;11.618;2024-02-23T12:31:34;7.80;99.90
39925;DHT22;25592;49.986;11.618;2024-02-23T12:34:19;7.70;99.90
39925;DHT22;25592;49.986;11.618;2024-02-23T12:37:07;7.80;99.90
39925;DHT22;25592;49.986;11.618;2024-02-23T12:39:53;7.80;99.90
39925;DHT22;25592;49.986;11.618;2024-02-23T12:42:39;7.70;99.90
39925;DHT22;25592;49.986;11.618;2024-02-23T12:45:24;7.90;99.90
39925;DHT22;25592;49.986;11.618;2024-02-23T12:48:10;8.00;99.90
39925;DHT22;25592;49.986;11.618;2024-02-23T12:50:55;8.00;99.90
39925;DHT22;25592;49.986;11.618;2024-02-23T12:53:42;8.00;99.90
39925;DHT22;25592;49.986;11.618;2024-02-23T12:56:27;7.90;99.90
39925;DHT22;25592;49.986;11.618;2024-02-23T12:59:13;8.10;99.90
39925;DHT22;25592;49.986;11.618;2024-02-23T13:01:58;8.20;99.90
39925;DHT22;25592;49.986;11.618;2024-02-23T13:04:44;8.20;99.90
39925;DHT22;25592;49.986;11.618;2024-02-23T13:07:35;8.10;99.90
39925;DHT22;25592;49.986;11.618;2024-02-23T13:10:24;8.10;99.90
39925;DHT22;25592;49.986;11.618;2024-02-23T13:13:09;8.00;99.90
39925;DHT22;25592;49.986;11.618;2024-02-23T13:15:55;8.00;99.90
39925;DHT22;25592;49.986;11.618;2024-02-23T13:18:40;8.10;99.90
39925;DHT22;25592;49.986;11.618;2024-02-23T13:21:26;8.10;99.90
39925;DHT22;25592;49.986;11.618;2024-02-23T13:24:11;8.10;99.90
39925;DHT22;25592;49.986;11.618;2024-02-23T13:26:56;7.90;99.90
39925;DHT22;25592;49.986;11.618;2024-02-23T13:29:42;7.80;99.90
39925;DHT22;25592;49.986;11.618;2024-02-23T13:32:27;7.70;99.90
39925;DHT22;25592;49.986;11.618;2024-02-23T13:35:13;7.70;99.90
39925;DHT22;25592;49.986;11.618;2024-02-23T13:37:59;7.80;99.90
39925;DHT22;25592;49.986;11.618;2024-02-23T13:40:45;7.80;99.90
39925;DHT22;25592;49.986;11.618;2024-02-23T13:43:30;7.70;99.90
39925;DHT22;25592;49.986;11.618;2024-02-23T13:46:16;7.70;99.90
39925;DHT22;25592;49.986;11.618;2024-02-23T13:49:06;7.90;99.90
39925;DHT22;25592;49.986;11.618;2024-02-23T13:51:52;7.90;99.90
39925;DHT22;25592;49.986;11.618;2024-02-23T13:54:38;7.90;99.90
39925;DHT22;25592;49.986;11.618;2024-02-23T13:57:23;7.90;99.90
39925;DHT22;25592;49.986;11.618;2024-02-23T14:00:09;8.00;99.90
39925;DHT22;25592;49.986;11.618;2024-02-23T14:02:57;8.20;99.90
39925;DHT22;25592;49.986;11.618;2024-02-23T14:05:43;8.20;99.90
39925;DHT22;25592;49.986;11.618;2024-02-23T14:08:30;8.30;99.90
39925;DHT22;25592;49.986;11.618;2024-02-23T14:11:16;8.40;99.90
39925;DHT22;25592;49.986;11.618;2024-02-23T14:14:02;8.50;99.90
39925;DHT22;25592;49.986;11.618;2024-02-23T14:16:48;8.30;99.90
39925;DHT22;25592;49.986;11.618;2024-02-23T14:19:33;8.20;99.90
39925;DHT22;25592;49.986;11.618;2024-02-23T14:22:22;8.20;99.90
39925;DHT22;25592;49.986;11.618;2024-02-23T14:25:07;8.10;99.90
39925;DHT22;25592;49.986;11.618;2024-02-23T14:27:53;8.20;99.90
39925;DHT22;25592;49.986;11.618;2024-02-23T14:30:40;8.30;99.90
39925;DHT22;25592;49.986;11.618;2024-02-23T14:33:28;8.40;99.90
39925;DHT22;25592;49.986;11.618;2024-02-23T14:36:13;8.50;99.90
39925;DHT22;25592;49.986;11.618;2024-02-23T14:38:59;8.50;99.90
39925;DHT22;25592;49.986;11.618;2024-02-23T14:41:44;8.50;99.90
39925;DHT22;25592;49.986;11.618;2024-02-23T14:44:30;8.60;99.90
39925;DHT22;25592;49.986;11.618;2024-02-23T14:47:16;8.50;99.90
39925;DHT22;25592;49.986;11.618;2024-02-23T14:50:01;8.40;99.90
39925;DHT22;25592;49.986;11.618;2024-02-23T14:52:47;8.50;99.90
39925;DHT22;25592;49.986;11.618;2024-02-23T14:55:33;8.40;99.90
39925;DHT22;25592;49.986;11.618;2024-02-23T14:58:18;8.40;99.90
39925;DHT22;25592;49.986;11.618;2024-02-23T15:01:04;8.60;99.90
39925;DHT22;25592;49.986;11.618;2024-02-23T15:03:50;8.50;99.90
39925;DHT22;25592;49.986;11.618;2024-02-23T15:06:35;8.60;99.90
39925;DHT22;25592;49.986;11.618;2024-02-23T15:09:23;8.50;99.90
39925;DHT22;25592;49.986;11.618;2024-02-23T15:12:09;8.50;99.90
39925;DHT22;25592;49.986;11.618;2024-02-23T15:14:54;8.50;99.90
39925;DHT22;25592;49.986;11.618;2024-02-23T15:17:40;8.50;99.90
39925;DHT22;25592;49.986;11.618;2024-02-23T15:20:27;8.60;99.90
39925;DHT22;25592;49.986;11.618;2024-02-23T15:23:13;8.60;99.90
39925;DHT22;25592;49.986;11.618;2024-02-23T15:25:58;8.50;99.90
39925;DHT22;25592;49.986;11.618;2024-02-23T15:28:55;8.50;99.90
39925;DHT22;25592;49.986;11.618;2024-02-23T15:31:41;8.50;99.90
39925;DHT22;25592;49.986;11.618;2024-02-23T15:34:27;8.40;99.90
39925;DHT22;25592;49.986;11.618;2024-02-23T15:37:13;8.40;99.90
39925;DHT22;25592;49.986;11.618;2024-02-23T15:39:58;8.30;99.90
39925;DHT22;25592;49.986;11.618;2024-02-23T15:42:43;8.30;99.90
39925;DHT22;25592;49.986;11.618;2024-02-23T15:45:29;8.40;99.90
39925;DHT22;25592;49.986;11.618;2024-02-23T15:48:15;8.20;99.90
39925;DHT22;25592;49.986;11.618;2024-02-23T15:51:00;8.20;99.90
39925;DHT22;25592;49.986;11.618;2024-02-23T15:54:06;8.20;99.90
39925;DHT22;25592;49.986;11.618;2024-02-23T15:56:52;8.20;99.90
39925;DHT22;25592;49.986;11.618;2024-02-23T15:59:37;8.20;99.90
39925;DHT22;25592;49.986;11.618;2024-02-23T16:02:23;8.10;99.90
39925;DHT22;25592;49.986;11.618;2024-02-23T16:05:10;8.10;99.90
39925;DHT22;25592;49.986;11.618;2024-02-23T16:07:57;8.20;99.90
39925;DHT22;25592;49.986;11.618;2024-02-23T16:10:42;8.40;99.90
39925;DHT22;25592;49.986;11.618;2024-02-23T16:13:28;8.40;99.90
39925;DHT22;25592;49.986;11.618;2024-02-23T16:16:14;8.40;99.90
39925;DHT22;25592;49.986;11.618;2024-02-23T16:18:59;8.40;99.90
39925;DHT22;25592;49.986;11.618;2024-02-23T16:21:45;8.40;99.90
39925;DHT22;25592;49.986;11.618;2024-02-23T16:24:31;8.40;99.90
39925;DHT22;25592;49.986;11.618;2024-02-23T16:27:17;8.40;99.90
39925;DHT22;25592;49.986;11.618;2024-02-23T16:30:02;8.30;99.90
39925;DHT22;25592;49.986;11.618;2024-02-23T16:32:48;8.40;99.90
39925;DHT22;25592;49.986;11.618;2024-02-23T16:35:34;8.40;99.90
39925;DHT22;25592;49.986;11.618;2024-02-23T16:38:20;8.30;99.90
39925;DHT22;25592;49.986;11.618;2024-02-23T16:41:06;8.20;99.90
39925;DHT22;25592;49.986;11.618;2024-02-23T16:43:51;8.10;99.90
39925;DHT22;25592;49.986;11.618;2024-02-23T16:46:37;8.20;99.90
39925;DHT22;25592;49.986;11.618;2024-02-23T16:49:22;8.30;99.90
39925;DHT22;25592;49.986;11.618;2024-02-23T16:52:08;8.30;99.90
39925;DHT22;25592;49.986;11.618;2024-02-23T16:54:53;8.40;99.90
39925;DHT22;25592;49.986;11.618;2024-02-23T16:57:39;8.40;99.90
39925;DHT22;25592;49.986;11.618;2024-02-23T17:00:25;8.40;99.90
39925;DHT22;25592;49.986;11.618;2024-02-23T17:03:11;8.40;99.90
39925;DHT22;25592;49.986;11.618;2024-02-23T17:05:57;8.10;99.90
39925;DHT22;25592;49.986;11.618;2024-02-23T17:08:43;8.00;99.90
39925;DHT22;25592;49.986;11.618;2024-02-23T17:11:29;8.00;99.90
39925;DHT22;25592;49.986;11.618;2024-02-23T17:14:15;8.10;99.90
39925;DHT22;25592;49.986;11.618;2024-02-23T17:17:00;8.00;99.90
39925;DHT22;25592;49.986;11.618;2024-02-23T17:19:49;7.90;99.90
39925;DHT22;25592;49.986;11.618;2024-02-23T17:22:35;7.90;99.90
39925;DHT22;25592;49.986;11.618;2024-02-23T17:25:20;7.90;99.90
39925;DHT22;25592;49.986;11.618;2024-02-23T17:28:06;8.00;99.90